createdAt,value
2023-04-02T00:00:34.426Z,76.8126
2023-04-02T00:01:35.217Z,76.8129
2023-04-02T00:02:36.035Z,76.8103
2023-04-02T00:03:36.967Z,76.8185
2023-04-02T00:04:37.994Z,76.8427
2023-04-02T00:05:38.786Z,76.8788
2023-04-02T00:06:39.609Z,76.8940
2023-04-02T00:07:40.452Z,76.8994
2023-04-02T00:08:41.312Z,76.9179
2023-04-02T00:09:42.188Z,76.9288
2023-04-02T00:10:43.004Z,76.9396
2023-04-02T00:11:43.757Z,76.9395
2023-04-02T00:12:44.609Z,76.9222
2023-04-02T00:13:45.386Z,76.9120
2023-04-02T00:14:47.356Z,76.9043
2023-04-02T00:15:48.166Z,76.9015
2023-04-02T00:16:48.985Z,76.9023
2023-04-02T00:17:49.972Z,76.9018
2023-04-02T00:18:50.750Z,76.9029
2023-04-02T00:19:51.601Z,76.9025
2023-04-02T00:20:52.414Z,76.9007
2023-04-02T00:21:53.234Z,76.9004
2023-04-02T00:22:54.200Z,76.9055
2023-04-02T00:23:54.997Z,76.9161
2023-04-02T00:24:55.811Z,76.9227
2023-04-02T00:25:56.782Z,76.9251
2023-04-02T00:26:57.626Z,76.9297
2023-04-02T00:27:58.479Z,76.9300
2023-04-02T00:28:59.293Z,76.9424
2023-04-02T00:30:00.189Z,76.9482
2023-04-02T00:31:00.992Z,76.9922
2023-04-02T00:32:01.898Z,77.0513
2023-04-02T00:33:02.789Z,77.0860
2023-04-02T00:34:03.701Z,77.1086
2023-04-02T00:35:04.560Z,77.1320
2023-04-02T00:36:05.389Z,77.1572
2023-04-02T00:37:06.235Z,77.1827
2023-04-02T00:38:07.133Z,77.2225
2023-04-02T00:39:07.890Z,77.2390
2023-04-02T00:40:08.674Z,77.2671
2023-04-02T00:41:09.547Z,77.3038
2023-04-02T00:42:10.348Z,77.3378
2023-04-02T00:43:11.170Z,77.3762
2023-04-02T00:44:12.029Z,77.3978
2023-04-02T00:45:12.847Z,77.4136
2023-04-02T00:46:13.691Z,77.4208
2023-04-02T00:47:14.714Z,77.4147
2023-04-02T00:48:15.543Z,77.4227
2023-04-02T00:49:16.411Z,77.4440
2023-04-02T00:50:17.335Z,77.4617
2023-04-02T00:51:18.176Z,77.4921
2023-04-02T00:52:18.997Z,77.5338
2023-04-02T00:53:19.861Z,77.5822
2023-04-02T00:54:20.667Z,77.6015
2023-04-02T00:55:21.590Z,77.6364
2023-04-02T00:56:22.465Z,77.6566
2023-04-02T00:57:23.369Z,77.6866
2023-04-02T00:58:24.339Z,77.7343
2023-04-02T00:59:25.265Z,77.7603
2023-04-02T01:00:26.181Z,77.7826
2023-04-02T01:01:27.177Z,77.8130
2023-04-02T01:02:28.545Z,77.8431
2023-04-02T01:03:30.244Z,77.8605
2023-04-02T01:04:32.002Z,77.8880
2023-04-02T01:05:33.302Z,77.9168
2023-04-02T01:06:35.160Z,77.9275
2023-04-02T01:07:36.000Z,77.9269
2023-04-02T01:08:36.827Z,77.9163
2023-04-02T01:09:37.720Z,77.9077
2023-04-02T01:10:38.870Z,77.8972
2023-04-02T01:11:39.814Z,77.8922
2023-04-02T01:12:40.762Z,77.9001
2023-04-02T01:13:41.653Z,77.9393
2023-04-02T01:14:42.513Z,77.9970
2023-04-02T01:15:43.430Z,78.0759
2023-04-02T01:16:44.250Z,78.1619
2023-04-02T01:17:45.134Z,78.2246
2023-04-02T01:18:46.115Z,78.2914
2023-04-02T01:19:47.044Z,78.3513
2023-04-02T01:20:48.099Z,78.4038
2023-04-02T01:21:48.924Z,78.4555
2023-04-02T01:22:49.848Z,78.5316
2023-04-02T01:23:50.672Z,78.5609
2023-04-02T01:24:51.499Z,78.5845
2023-04-02T01:25:52.377Z,78.6127
2023-04-02T01:26:53.160Z,78.6434
2023-04-02T01:27:54.005Z,78.6657
2023-04-02T01:28:55.079Z,78.6803
2023-04-02T01:29:55.980Z,78.6961
2023-04-02T01:30:56.848Z,78.7143
2023-04-02T01:31:57.709Z,78.7384
2023-04-02T01:32:58.556Z,78.7743
2023-04-02T01:33:59.716Z,78.7766
2023-04-02T01:35:00.506Z,78.7737
2023-04-02T01:36:01.419Z,78.7729
2023-04-02T01:37:02.328Z,78.7689
2023-04-02T01:38:03.143Z,78.7670
2023-04-02T01:39:03.928Z,78.7700
2023-04-02T01:40:04.692Z,78.7688
2023-04-02T01:41:05.522Z,78.7647
2023-04-02T01:42:06.334Z,78.7672
2023-04-02T01:43:07.160Z,78.7662
2023-04-02T01:44:08.992Z,78.7753
2023-04-02T01:45:09.893Z,78.7745
2023-04-02T01:46:10.780Z,78.7757
2023-04-02T01:47:11.604Z,78.7781
2023-04-02T01:48:12.425Z,78.7801
2023-04-02T01:49:13.327Z,78.7869
2023-04-02T01:50:14.192Z,78.7903
2023-04-02T01:51:15.080Z,78.7986
2023-04-02T01:52:15.993Z,78.8044
2023-04-02T01:53:16.848Z,78.8051
2023-04-02T01:54:18.654Z,78.8176
2023-04-02T01:55:19.712Z,78.8167
2023-04-02T01:56:20.528Z,78.8183
2023-04-02T01:57:21.482Z,78.8113
2023-04-02T01:58:22.366Z,78.8069
2023-04-02T01:59:23.256Z,78.7975
2023-04-02T02:00:24.115Z,78.7897
2023-04-02T02:01:25.034Z,78.7908
2023-04-02T02:02:25.987Z,78.7814
2023-04-02T02:03:26.810Z,78.7800
2023-04-02T02:04:27.715Z,78.7684
2023-04-02T02:05:28.618Z,78.7644
2023-04-02T02:06:29.440Z,78.7668
2023-04-02T02:07:30.292Z,78.7607
2023-04-02T02:08:31.085Z,78.7552
2023-04-02T02:09:31.906Z,78.7480
2023-04-02T02:10:32.716Z,78.7378
2023-04-02T02:11:33.516Z,78.7322
2023-04-02T02:12:34.356Z,78.7319
2023-04-02T02:13:35.197Z,78.7318
2023-04-02T02:14:36.017Z,78.7310
2023-04-02T02:15:37.141Z,78.7327
2023-04-02T02:16:38.382Z,78.7295
2023-04-02T02:17:39.245Z,78.7290
2023-04-02T02:18:40.079Z,78.7253
2023-04-02T02:19:40.929Z,78.7210
2023-04-02T02:20:41.859Z,78.7074
2023-04-02T02:21:42.680Z,78.6819
2023-04-02T02:22:43.532Z,78.6445
2023-04-02T02:23:44.400Z,78.5948
2023-04-02T02:24:45.207Z,78.5368
2023-04-02T02:25:46.050Z,78.4770
2023-04-02T02:26:46.870Z,78.4390
2023-04-02T02:27:47.768Z,78.4143
2023-04-02T02:28:48.556Z,78.4102
2023-04-02T02:29:49.444Z,78.4144
2023-04-02T02:30:50.361Z,78.4057
2023-04-02T02:31:51.281Z,78.3838
2023-04-02T02:32:52.197Z,78.3444
2023-04-02T02:33:53.109Z,78.3421
2023-04-02T02:34:53.964Z,78.3660
2023-04-02T02:35:54.905Z,78.3831
2023-04-02T02:36:55.813Z,78.3974
2023-04-02T02:37:56.678Z,78.4151
2023-04-02T02:38:57.597Z,78.4283
2023-04-02T02:39:58.452Z,78.4504
2023-04-02T02:40:59.319Z,78.4906
2023-04-02T02:42:00.157Z,78.5452
2023-04-02T02:43:00.953Z,78.6170
2023-04-02T02:44:01.804Z,78.7062
2023-04-02T02:45:02.661Z,78.7964
2023-04-02T02:46:03.537Z,78.8592
2023-04-02T02:47:04.384Z,78.9205
2023-04-02T02:48:05.259Z,78.9632
2023-04-02T02:49:06.122Z,79.0136
2023-04-02T02:50:06.943Z,79.0713
2023-04-02T02:51:07.796Z,79.0848
2023-04-02T02:52:08.662Z,79.1061
2023-04-02T02:53:09.567Z,79.1203
2023-04-02T02:54:10.357Z,79.1218
2023-04-02T02:55:11.213Z,79.1201
2023-04-02T02:56:12.047Z,79.1258
2023-04-02T02:57:12.941Z,79.1273
2023-04-02T02:58:13.808Z,79.1142
2023-04-02T02:59:14.651Z,79.1068
2023-04-02T03:00:15.572Z,79.0962
2023-04-02T03:01:16.426Z,79.0871
2023-04-02T03:02:17.315Z,79.0811
2023-04-02T03:03:18.430Z,79.0740
2023-04-02T03:04:19.626Z,79.0698
2023-04-02T03:05:20.659Z,79.0614
2023-04-02T03:06:21.556Z,79.0363
2023-04-02T03:07:22.384Z,79.0100
2023-04-02T03:08:23.207Z,78.9819
2023-04-02T03:09:24.064Z,78.9557
2023-04-02T03:10:24.924Z,78.9362
2023-04-02T03:11:25.816Z,78.9191
2023-04-02T03:12:26.644Z,78.8911
2023-04-02T03:13:27.530Z,78.8608
2023-04-02T03:14:28.418Z,78.8252
2023-04-02T03:15:29.273Z,78.8005
2023-04-02T03:16:30.125Z,78.7692
2023-04-02T03:17:30.958Z,78.7464
2023-04-02T03:18:31.795Z,78.7232
2023-04-02T03:19:32.560Z,78.7045
2023-04-02T03:20:33.398Z,78.6895
2023-04-02T03:21:34.280Z,78.6712
2023-04-02T03:22:35.108Z,78.6550
2023-04-02T03:23:36.016Z,78.6345
2023-04-02T03:24:36.871Z,78.6110
2023-04-02T03:25:37.759Z,78.5857
2023-04-02T03:26:38.636Z,78.5620
2023-04-02T03:27:39.440Z,78.5376
2023-04-02T03:28:40.346Z,78.5175
2023-04-02T03:29:41.205Z,78.4891
2023-04-02T03:30:42.018Z,78.4562
2023-04-02T03:31:42.939Z,78.4395
2023-04-02T03:32:43.793Z,78.4183
2023-04-02T03:33:44.639Z,78.3925
2023-04-02T03:34:45.551Z,78.3689
2023-04-02T03:35:46.401Z,78.3463
2023-04-02T03:36:47.305Z,78.3269
2023-04-02T03:37:48.132Z,78.3085
2023-04-02T03:38:48.990Z,78.2916
2023-04-02T03:39:49.862Z,78.2795
2023-04-02T03:40:50.734Z,78.2672
2023-04-02T03:41:51.521Z,78.2583
2023-04-02T03:42:52.407Z,78.2480
2023-04-02T03:43:53.254Z,78.2387
2023-04-02T03:44:54.067Z,78.2339
2023-04-02T03:45:54.907Z,78.2308
2023-04-02T03:46:55.860Z,78.2254
2023-04-02T03:47:56.715Z,78.2266
2023-04-02T03:48:57.622Z,78.2268
2023-04-02T03:49:58.430Z,78.2306
2023-04-02T03:50:59.304Z,78.2293
2023-04-02T03:52:00.224Z,78.2252
2023-04-02T03:53:01.069Z,78.2203
2023-04-02T03:54:01.915Z,78.2175
2023-04-02T03:55:02.690Z,78.2179
2023-04-02T03:56:03.475Z,78.2178
2023-04-02T03:57:04.381Z,78.2250
2023-04-02T03:58:05.271Z,78.2281
2023-04-02T03:59:06.061Z,78.2365
2023-04-02T04:00:06.896Z,78.2415
2023-04-02T04:01:07.770Z,78.2525
2023-04-02T04:02:08.633Z,78.2652
2023-04-02T04:03:09.534Z,78.2785
2023-04-02T04:04:10.599Z,78.2920
2023-04-02T04:05:11.768Z,78.3056
2023-04-02T04:06:12.755Z,78.3246
2023-04-02T04:07:13.671Z,78.3387
2023-04-02T04:08:14.508Z,78.3530
2023-04-02T04:09:15.370Z,78.3701
2023-04-02T04:10:16.234Z,78.3768
2023-04-02T04:11:17.118Z,78.3671
2023-04-02T04:12:17.946Z,78.3599
2023-04-02T04:13:18.859Z,78.3542
2023-04-02T04:14:19.658Z,78.3537
2023-04-02T04:15:20.547Z,78.3296
2023-04-02T04:16:21.468Z,78.3135
2023-04-02T04:17:22.320Z,78.2955
2023-04-02T04:18:24.187Z,78.2771
2023-04-02T04:19:25.012Z,78.2537
2023-04-02T04:20:25.836Z,78.2329
2023-04-02T04:21:26.687Z,78.2155
2023-04-02T04:22:27.563Z,78.1900
2023-04-02T04:23:28.385Z,78.1708
2023-04-02T04:24:29.247Z,78.1450
2023-04-02T04:25:30.104Z,78.1165
2023-04-02T04:26:31.178Z,78.0890
2023-04-02T04:27:32.058Z,78.0623
2023-04-02T04:28:33.002Z,78.0385
2023-04-02T04:29:33.842Z,78.0073
2023-04-02T04:30:34.788Z,77.9785
2023-04-02T04:31:35.637Z,77.9483
2023-04-02T04:32:36.549Z,77.9257
2023-04-02T04:33:37.356Z,77.9035
2023-04-02T04:34:38.192Z,77.8692
2023-04-02T04:35:39.444Z,77.8421
2023-04-02T04:36:39.218Z,77.8222
2023-04-02T04:37:41.033Z,77.8029
2023-04-02T04:38:41.806Z,77.7919
2023-04-02T04:39:42.640Z,77.7664
2023-04-02T04:40:43.448Z,77.7461
2023-04-02T04:41:44.456Z,77.7273
2023-04-02T04:42:45.235Z,77.7096
2023-04-02T04:43:46.140Z,77.6801
2023-04-02T04:44:46.937Z,77.6559
2023-04-02T04:45:47.941Z,77.6185
2023-04-02T04:46:48.778Z,77.5884
2023-04-02T04:47:49.651Z,77.5594
2023-04-02T04:48:50.559Z,77.5298
2023-04-02T04:49:51.402Z,77.5086
2023-04-02T04:50:52.279Z,77.4912
2023-04-02T04:51:53.200Z,77.4779
2023-04-02T04:52:54.077Z,77.4535
2023-04-02T04:53:55.958Z,77.4323
2023-04-02T04:54:56.747Z,77.4075
2023-04-02T04:56:05.905Z,77.3765
2023-04-02T04:56:59.157Z,77.3633
2023-04-02T04:58:00.055Z,77.3358
2023-04-02T04:59:00.856Z,77.3192
2023-04-02T05:00:01.649Z,77.3002
2023-04-02T05:01:02.515Z,77.2772
2023-04-02T05:02:03.460Z,77.2501
2023-04-02T05:03:04.303Z,77.2200
2023-04-02T05:04:05.137Z,77.1913
2023-04-02T05:05:05.982Z,77.1632
2023-04-02T05:06:06.792Z,77.1356
2023-04-02T05:07:07.647Z,77.1137
2023-04-02T05:08:08.465Z,77.0978
2023-04-02T05:09:09.274Z,77.0779
2023-04-02T05:10:10.127Z,77.0541
2023-04-02T05:11:10.983Z,77.0274
2023-04-02T05:12:11.876Z,76.9967
2023-04-02T05:13:12.800Z,76.9617
2023-04-02T05:14:13.589Z,76.9356
2023-04-02T05:15:14.461Z,76.9194
2023-04-02T05:16:16.372Z,76.9101
2023-04-02T05:17:17.187Z,76.9012
2023-04-02T05:18:18.005Z,76.8902
2023-04-02T05:19:19.084Z,76.8813
2023-04-02T05:20:19.854Z,76.8697
2023-04-02T05:21:20.637Z,76.8581
2023-04-02T05:22:21.469Z,76.8436
2023-04-02T05:23:22.278Z,76.8228
2023-04-02T05:24:23.097Z,76.8023
2023-04-02T05:25:23.943Z,76.7937
2023-04-02T05:26:24.752Z,76.7772
2023-04-02T05:27:25.680Z,76.7569
2023-04-02T05:28:26.510Z,76.7374
2023-04-02T05:29:27.465Z,76.7254
2023-04-02T05:30:28.266Z,76.7061
2023-04-02T05:31:29.156Z,76.6919
2023-04-02T05:32:29.999Z,76.6765
2023-04-02T05:33:30.866Z,76.6540
2023-04-02T05:34:31.699Z,76.6280
2023-04-02T05:35:32.567Z,76.6037
2023-04-02T05:36:33.364Z,76.5916
2023-04-02T05:37:34.281Z,76.5791
2023-04-02T05:38:35.132Z,76.5660
2023-04-02T05:39:36.009Z,76.5471
2023-04-02T05:40:36.880Z,76.5251
2023-04-02T05:41:37.743Z,76.5031
2023-04-02T05:42:38.578Z,76.4807
2023-04-02T05:43:39.359Z,76.4564
2023-04-02T05:44:40.170Z,76.4265
2023-04-02T05:45:40.988Z,76.3889
2023-04-02T05:46:41.855Z,76.3564
2023-04-02T05:47:42.805Z,76.3303
2023-04-02T05:48:43.660Z,76.3071
2023-04-02T05:49:44.468Z,76.2850
2023-04-02T05:50:45.283Z,76.2668
2023-04-02T05:51:46.078Z,76.2459
2023-04-02T05:52:46.962Z,76.2213
2023-04-02T05:53:47.754Z,76.1943
2023-04-02T05:54:48.691Z,76.1748
2023-04-02T05:55:49.555Z,76.1626
2023-04-02T05:56:50.456Z,76.1568
2023-04-02T05:58:13.505Z,76.1491
2023-04-02T05:58:52.781Z,76.1492
2023-04-02T05:59:53.660Z,76.1259
2023-04-02T06:00:54.535Z,76.0992
2023-04-02T06:01:55.383Z,76.0756
2023-04-02T06:02:56.284Z,76.0493
2023-04-02T06:03:58.049Z,76.0269
2023-04-02T06:04:58.867Z,76.0024
2023-04-02T06:05:59.695Z,75.9822
2023-04-02T06:07:00.621Z,75.9703
2023-04-02T06:08:02.504Z,75.9553
2023-04-02T06:09:03.310Z,75.9516
2023-04-02T06:10:04.135Z,75.9508
2023-04-02T06:11:05.024Z,75.9451
2023-04-02T06:12:05.861Z,75.9503
2023-04-02T06:13:06.747Z,75.9431
2023-04-02T06:14:07.550Z,75.9339
2023-04-02T06:15:08.408Z,75.9215
2023-04-02T06:16:09.214Z,75.9040
2023-04-02T06:17:09.993Z,75.8751
2023-04-02T06:18:10.885Z,75.8234
2023-04-02T06:19:11.781Z,75.7915
2023-04-02T06:20:12.572Z,75.7707
2023-04-02T06:21:13.314Z,75.7436
2023-04-02T06:22:14.066Z,75.7007
2023-04-02T06:23:14.819Z,75.6636
2023-04-02T06:24:15.662Z,75.6444
2023-04-02T06:25:16.487Z,75.6255
2023-04-02T06:26:17.367Z,75.6090
2023-04-02T06:27:18.209Z,75.5923
2023-04-02T06:28:19.009Z,75.5908
2023-04-02T06:29:19.840Z,75.5954
2023-04-02T06:30:20.650Z,75.5972
2023-04-02T06:31:21.432Z,75.5863
2023-04-02T06:32:22.318Z,75.5694
2023-04-02T06:33:23.103Z,75.5395
2023-04-02T06:34:23.920Z,75.5154
2023-04-02T06:35:24.743Z,75.4828
2023-04-02T06:36:25.545Z,75.4540
2023-04-02T06:37:26.341Z,75.4299
2023-04-02T06:38:27.175Z,75.4143
2023-04-02T06:39:27.985Z,75.3942
2023-04-02T06:40:28.809Z,75.3794
2023-04-02T06:41:29.602Z,75.3640
2023-04-02T06:42:30.411Z,75.3388
2023-04-02T06:43:31.215Z,75.2774
2023-04-02T06:44:32.198Z,75.2133
2023-04-02T06:45:33.125Z,75.1446
2023-04-02T06:46:34.490Z,75.0802
2023-04-02T06:47:35.420Z,75.0140
2023-04-02T06:48:36.250Z,74.9660
2023-04-02T06:49:37.051Z,74.9011
2023-04-02T06:50:37.827Z,74.8256
2023-04-02T06:51:38.666Z,74.7585
2023-04-02T06:52:39.468Z,74.6197
2023-04-02T06:53:40.322Z,74.4400
2023-04-02T06:54:41.089Z,74.3587
2023-04-02T06:55:42.919Z,74.2877
2023-04-02T06:56:43.727Z,74.0996
2023-04-02T06:57:44.674Z,74.0284
2023-04-02T06:58:45.563Z,74.0363
2023-04-02T06:59:47.593Z,74.0070
2023-04-02T07:00:48.409Z,73.9742
2023-04-02T07:01:49.308Z,73.9032
2023-04-02T07:02:50.225Z,73.8126
2023-04-02T07:03:51.051Z,73.7592
2023-04-02T07:04:51.916Z,73.7242
2023-04-02T07:05:52.815Z,73.6982
2023-04-02T07:06:54.670Z,73.6397
2023-04-02T07:07:55.547Z,73.4538
2023-04-02T07:08:56.337Z,73.3200
2023-04-02T07:09:57.130Z,73.1335
2023-04-02T07:10:57.954Z,72.9229
2023-04-02T07:11:58.681Z,72.6621
2023-04-02T07:12:59.472Z,72.4695
2023-04-02T07:14:00.396Z,72.3747
2023-04-02T07:15:01.160Z,72.3068
2023-04-02T07:16:02.018Z,72.2523
2023-04-02T07:17:03.519Z,72.2058
2023-04-02T07:18:04.296Z,72.1691
2023-04-02T07:19:05.766Z,72.0633
2023-04-02T07:20:06.634Z,71.9828
2023-04-02T07:21:10.791Z,71.8553
2023-04-02T07:22:11.195Z,71.8862
2023-04-02T07:23:14.015Z,71.8581
2023-04-02T07:24:13.193Z,71.7388
2023-04-02T07:25:13.970Z,71.5701
2023-04-02T07:26:14.834Z,71.4763
2023-04-02T07:27:15.679Z,71.2867
2023-04-02T07:28:16.599Z,71.1633
2023-04-02T07:29:17.364Z,71.0957
2023-04-02T07:30:18.134Z,71.0430
2023-04-02T07:31:19.013Z,70.9634
2023-04-02T07:32:19.764Z,70.8271
2023-04-02T07:33:20.561Z,70.7671
2023-04-02T07:34:21.401Z,70.7228
2023-04-02T07:35:22.182Z,70.7372
2023-04-02T07:36:23.048Z,70.6738
2023-04-02T07:37:24.078Z,70.6584
2023-04-02T07:38:24.945Z,70.6797
2023-04-02T07:39:25.749Z,70.6698
2023-04-02T07:40:26.557Z,70.6008
2023-04-02T07:41:27.308Z,70.4781
2023-04-02T07:42:28.059Z,70.1542
2023-04-02T07:43:28.938Z,69.7403
2023-04-02T07:44:29.771Z,69.4503
2023-04-02T07:45:30.648Z,69.1792
2023-04-02T07:46:31.486Z,68.9660
2023-04-02T07:47:32.320Z,68.8630
2023-04-02T07:48:34.212Z,68.7375
2023-04-02T07:49:35.040Z,68.6267
2023-04-02T07:50:35.823Z,68.7252
2023-04-02T07:51:36.628Z,68.7631
2023-04-02T07:52:39.854Z,68.8697
2023-04-02T07:53:39.068Z,68.8442
2023-04-02T07:54:39.818Z,68.7880
2023-04-02T07:55:40.538Z,68.6292
2023-04-02T07:56:41.331Z,68.6044
2023-04-02T07:57:43.657Z,68.3834
2023-04-02T07:58:43.117Z,67.7571
2023-04-02T07:59:43.892Z,66.9235
2023-04-02T08:00:44.599Z,66.8698
2023-04-02T08:01:45.381Z,66.9218
2023-04-02T08:02:46.199Z,66.8890
2023-04-02T08:03:47.031Z,66.6411
2023-04-02T08:04:47.941Z,66.3925
2023-04-02T08:05:48.676Z,66.1878
2023-04-02T08:06:49.473Z,66.1588
2023-04-02T08:07:50.250Z,65.9676
2023-04-02T08:08:51.060Z,65.5874
2023-04-02T08:09:51.834Z,65.2511
2023-04-02T08:10:52.658Z,64.7749
2023-04-02T08:11:53.417Z,64.5329
2023-04-02T08:12:54.241Z,64.5552
2023-04-02T08:13:55.032Z,64.4454
2023-04-02T08:14:55.811Z,64.2735
2023-04-02T08:15:56.568Z,64.3865
2023-04-02T08:16:57.376Z,64.5084
2023-04-02T08:17:58.366Z,64.6149
2023-04-02T08:18:59.276Z,64.7256
2023-04-02T08:20:00.056Z,64.7640
2023-04-02T08:21:00.779Z,64.8162
2023-04-02T08:22:01.832Z,64.8648
2023-04-02T08:23:02.587Z,64.8933
2023-04-02T08:24:03.333Z,64.9145
2023-04-02T08:25:04.161Z,64.9640
2023-04-02T08:26:04.899Z,65.0089
2023-04-02T08:27:05.658Z,64.9817
2023-04-02T08:28:06.398Z,64.8484
2023-04-02T08:29:07.099Z,64.8170
2023-04-02T08:30:07.896Z,64.9035
2023-04-02T08:31:08.641Z,64.9751
2023-04-02T08:32:09.414Z,64.9040
2023-04-02T08:33:10.181Z,64.8921
2023-04-02T08:34:10.940Z,64.8426
2023-04-02T08:35:11.667Z,64.6237
2023-04-02T08:36:12.492Z,64.5699
2023-04-02T08:37:13.197Z,64.4985
2023-04-02T08:38:13.934Z,64.3918
2023-04-02T08:39:14.959Z,64.2945
2023-04-02T08:40:15.696Z,64.2893
2023-04-02T08:41:16.457Z,64.3132
2023-04-02T08:42:17.218Z,64.3248
2023-04-02T08:43:17.942Z,64.3288
2023-04-02T08:44:18.675Z,64.3082
2023-04-02T08:45:24.871Z,64.2155
2023-04-02T08:46:19.777Z,64.1367
2023-04-02T08:47:20.574Z,63.9834
2023-04-02T08:48:21.327Z,63.7419
2023-04-02T08:49:22.089Z,63.2899
2023-04-02T08:50:22.856Z,63.2508
2023-04-02T08:51:23.615Z,63.2383
2023-04-02T08:52:24.309Z,63.1898
2023-04-02T08:53:25.077Z,63.1207
2023-04-02T08:54:25.857Z,63.0242
2023-04-02T08:55:26.657Z,62.9720
2023-04-02T08:56:27.370Z,63.0954
2023-04-02T08:57:28.217Z,63.0976
2023-04-02T08:58:29.116Z,63.0225
2023-04-02T08:59:29.886Z,63.0851
2023-04-02T09:00:30.641Z,62.9167
2023-04-02T09:01:31.420Z,62.8062
2023-04-02T09:02:32.324Z,62.7370
2023-04-02T09:03:33.079Z,62.7675
2023-04-02T09:04:33.829Z,62.5386
2023-04-02T09:05:34.803Z,62.4432
2023-04-02T09:06:36.014Z,62.5047
2023-04-02T09:07:36.778Z,62.6713
2023-04-02T09:08:37.539Z,62.7719
2023-04-02T09:09:38.305Z,62.7764
2023-04-02T09:10:39.142Z,62.8564
2023-04-02T09:11:39.941Z,62.9362
2023-04-02T09:12:42.279Z,63.0443
2023-04-02T09:13:40.884Z,63.1496
2023-04-02T09:14:41.639Z,63.2164
2023-04-02T09:15:42.463Z,63.1593
2023-04-02T09:16:43.194Z,63.0983
2023-04-02T09:17:53.629Z,63.0999
2023-04-02T09:18:44.072Z,63.0592
2023-04-02T09:19:44.776Z,62.9705
2023-04-02T09:20:45.521Z,62.9178
2023-04-02T09:21:46.492Z,62.7316
2023-04-02T09:22:47.237Z,62.6407
2023-04-02T09:23:47.955Z,62.3792
2023-04-02T09:24:48.686Z,62.2695
2023-04-02T09:26:02.995Z,62.1938
2023-04-02T09:26:50.791Z,62.1586
2023-04-02T09:27:51.498Z,62.1448
2023-04-02T09:28:52.217Z,62.1204
2023-04-02T09:29:52.924Z,62.0897
2023-04-02T09:30:53.646Z,61.8572
2023-04-02T09:31:54.421Z,61.6326
2023-04-02T09:32:55.274Z,61.5929
2023-04-02T09:33:55.997Z,61.6210
2023-04-02T09:34:56.739Z,61.5081
2023-04-02T09:35:57.595Z,61.3844
2023-04-02T09:36:58.664Z,61.3491
2023-04-02T09:37:59.384Z,61.1550
2023-04-02T09:39:00.115Z,60.8215
2023-04-02T09:40:00.827Z,60.6758
2023-04-02T09:41:01.601Z,60.5981
2023-04-02T09:42:05.851Z,60.6015
2023-04-02T09:43:02.321Z,60.6441
2023-04-02T09:44:03.082Z,60.6982
2023-04-02T09:45:03.879Z,60.6840
2023-04-02T09:46:04.767Z,60.5203
2023-04-02T09:47:05.750Z,60.4179
2023-04-02T09:48:06.586Z,60.2428
2023-04-02T09:49:07.353Z,60.1213
2023-04-02T09:50:08.075Z,60.0785
2023-04-02T09:51:08.815Z,60.0805
2023-04-02T09:52:09.585Z,60.0339
2023-04-02T09:53:10.277Z,59.9256
2023-04-02T09:54:11.006Z,59.8552
2023-04-02T09:55:11.766Z,59.6302
2023-04-02T09:56:12.556Z,59.4978
2023-04-02T09:57:13.338Z,59.2676
2023-04-02T09:58:14.116Z,59.3084
2023-04-02T09:59:14.824Z,59.3828
2023-04-02T10:00:29.750Z,59.3654
2023-04-02T10:01:16.980Z,59.3575
2023-04-02T10:02:17.854Z,59.1279
2023-04-02T10:03:18.589Z,59.0807
2023-04-02T10:04:19.416Z,58.8927
2023-04-02T10:05:30.194Z,58.8193
2023-04-02T10:06:21.561Z,58.6783
2023-04-02T10:07:22.274Z,58.7440
2023-04-02T10:08:23.040Z,58.8258
2023-04-02T10:09:23.787Z,58.7904
2023-04-02T10:10:25.926Z,58.6856
2023-04-02T10:11:28.854Z,58.6211
2023-04-02T10:12:26.494Z,58.5385
2023-04-02T10:13:27.233Z,58.4633
2023-04-02T10:14:27.936Z,58.1918
2023-04-02T10:15:28.703Z,57.8659
2023-04-02T10:16:29.599Z,57.7109
2023-04-02T10:17:30.424Z,57.6939
2023-04-02T10:18:31.068Z,57.6786
2023-04-02T10:19:31.892Z,57.5923
2023-04-02T10:20:39.072Z,57.5458
2023-04-02T10:21:34.013Z,57.5132
2023-04-02T10:22:34.724Z,57.2799
2023-04-02T10:23:35.421Z,57.0945
2023-04-02T10:24:36.160Z,57.2586
2023-04-02T10:25:37.108Z,57.1157
2023-04-02T10:26:38.236Z,57.0023
2023-04-02T10:27:38.912Z,56.9274
2023-04-02T10:28:39.604Z,56.5752
2023-04-02T10:29:40.348Z,56.1996
2023-04-02T10:30:41.115Z,55.3313
2023-04-02T10:31:41.810Z,55.1158
2023-04-02T10:32:42.513Z,55.1856
2023-04-02T10:33:43.200Z,55.1319
2023-04-02T10:34:43.906Z,55.0610
2023-04-02T10:35:44.610Z,55.0720
2023-04-02T10:36:45.357Z,54.6596
2023-04-02T10:37:46.063Z,54.4495
2023-04-02T10:38:46.762Z,54.6090
2023-04-02T10:39:47.448Z,54.8403
2023-04-02T10:40:48.144Z,54.9914
2023-04-02T10:41:48.872Z,54.9403
2023-04-02T10:42:49.533Z,54.7021
2023-04-02T10:43:50.282Z,54.1865
2023-04-02T10:44:50.982Z,54.0205
2023-04-02T10:45:51.689Z,54.1380
2023-04-02T10:46:52.351Z,54.3893
2023-04-02T10:47:53.112Z,54.5158
2023-04-02T10:48:53.817Z,54.4971
2023-04-02T10:49:54.517Z,54.4490
2023-04-02T10:50:55.246Z,54.5003
2023-04-02T10:51:55.944Z,54.5580
2023-04-02T10:52:56.875Z,54.6772
2023-04-02T10:53:57.580Z,54.7993
2023-04-02T10:54:58.301Z,54.8852
2023-04-02T10:55:58.987Z,54.8030
2023-04-02T10:56:59.694Z,54.7373
2023-04-02T10:58:00.339Z,54.5671
2023-04-02T10:59:01.017Z,54.0277
2023-04-02T11:00:01.827Z,53.2977
2023-04-02T11:01:02.548Z,52.9657
2023-04-02T11:02:03.258Z,52.8412
2023-04-02T11:03:04.446Z,52.8676
2023-04-02T11:04:05.412Z,53.0134
2023-04-02T11:05:06.123Z,53.1206
2023-04-02T11:06:07.112Z,53.1681
2023-04-02T11:07:14.354Z,53.0642
2023-04-02T11:08:09.002Z,53.0293
2023-04-02T11:09:09.681Z,53.0969
2023-04-02T11:10:10.363Z,53.1319
2023-04-02T11:11:11.071Z,53.2394
2023-04-02T11:12:11.750Z,53.2528
2023-04-02T11:13:12.440Z,52.9768
2023-04-02T11:14:13.132Z,52.7755
2023-04-02T11:15:13.816Z,52.8801
2023-04-02T11:16:14.557Z,53.0416
2023-04-02T11:17:15.181Z,53.1511
2023-04-02T11:18:15.901Z,52.7733
2023-04-02T11:19:16.840Z,52.5382
2023-04-02T11:20:17.588Z,52.5567
2023-04-02T11:21:18.279Z,52.4722
2023-04-02T11:22:18.985Z,52.3682
2023-04-02T11:23:19.690Z,52.3454
2023-04-02T11:24:20.388Z,52.1953
2023-04-02T11:25:21.117Z,51.9379
2023-04-02T11:26:21.789Z,52.0345
2023-04-02T11:27:22.498Z,52.3121
2023-04-02T11:28:25.044Z,52.5144
2023-04-02T11:29:23.768Z,52.5564
2023-04-02T11:30:24.479Z,52.6294
2023-04-02T11:31:25.170Z,52.5903
2023-04-02T11:32:25.860Z,52.4215
2023-04-02T11:33:36.259Z,52.5224
2023-04-02T11:34:27.926Z,52.4755
2023-04-02T11:35:28.661Z,52.2044
2023-04-02T11:36:29.355Z,51.9835
2023-04-02T11:37:30.078Z,51.9395
2023-04-02T11:38:30.766Z,51.8757
2023-04-02T11:39:31.472Z,51.8355
2023-04-02T11:40:32.179Z,51.7759
2023-04-02T11:41:32.924Z,51.7661
2023-04-02T11:42:33.611Z,51.6764
2023-04-02T11:43:34.317Z,51.4488
2023-04-02T11:44:35.030Z,51.4056
2023-04-02T11:45:46.499Z,51.4534
2023-04-02T11:46:37.146Z,51.4941
2023-04-02T11:47:37.894Z,51.3430
2023-04-02T11:48:38.597Z,51.2505
2023-04-02T11:49:39.298Z,51.0556
2023-04-02T11:50:40.951Z,50.7487
2023-04-02T11:51:42.358Z,50.6799
2023-04-02T11:52:43.131Z,50.4442
2023-04-02T11:53:43.762Z,49.6500
2023-04-02T11:54:44.413Z,49.6710
2023-04-02T11:55:45.065Z,49.9558
2023-04-02T11:56:45.749Z,50.0559
2023-04-02T11:57:46.467Z,49.8093
2023-04-02T11:58:47.124Z,49.8105
2023-04-02T11:59:47.793Z,49.9955
2023-04-02T12:00:48.473Z,49.8740
2023-04-02T12:01:49.155Z,49.6942
2023-04-02T12:02:49.867Z,49.2123
2023-04-02T12:03:50.559Z,47.7771
2023-04-02T12:04:51.200Z,46.2675
2023-04-02T12:05:51.903Z,46.2012
2023-04-02T12:06:52.564Z,46.0032
2023-04-02T12:07:53.272Z,44.6458
2023-04-02T12:08:57.903Z,44.4792
2023-04-02T12:09:54.803Z,44.6459
2023-04-02T12:10:55.511Z,45.1659
2023-04-02T12:11:57.192Z,45.7544
2023-04-02T12:12:57.875Z,46.2770
2023-04-02T12:13:58.561Z,46.7350
2023-04-02T12:14:59.263Z,47.0604
2023-04-02T12:15:59.911Z,46.7095